Aérodrome :
LOGIN :

S'inscrire | Disclaimer

   EN    FR    IT 

 










Légende :    VFR   VFR Marginal   IFR   IFR Intensif   IFR Très Intensif
Visi : 
Plafond : 
>= 8 km
>= 3000ft
5 à 8 km
1000 à 3000 ft
1500m à 5 km
500 à 1000 ft
800 à 1500m
200 à 500 ft
< 800m
< 200 ft
Symboles :   Orages  Brouillard  Fortes neiges  Fortes précipitations  Vent > 20 kt
SIGMETs :   Divers  Orages  Givrage  Turbulence  Onde Orograph.  Cendres Volcan.







- Altitude de l'aérodrome : 1187 ft


LIBV - Gioia del Colle Bari

DERNIER METAR :
  • 201855Z 29006KT CAVOK 06/00 Q1020 RMK SKC VIS MIN 9999 WIND THR32 VRB01KT WIND THR14 29007KT BLU

METARs EXPIRÉS :
  • 201755Z 29007KT CAVOK 06/01 Q1020 RMK SKC VIS MIN 9999 WIND THR32 31007KT WIND THR14 29008KT BLU
  • 201655Z 00007KT CAVOK 07/01 Q1019 RMK SKC VIS MIN 9999 WIND THR32 33007KT WIND THR14 31007KT BLU
  • 201555Z 32009KT CAVOK 09/00 Q1018 RMK FEW FEW200 VIS MIN 9999 WIND THR32 33010KT WIND THR14 32008KT BLU

TAF TAF LIBV
Valide du 20 à 18h jusqu'au 21 à 03h UTC


201700Z 2018/2103 31010KT CAVOK
Pas de NOTAMs connus pour ce terrain.



MET'MAP, la Météo Aéronautique d'un coup d'oeil ! - Copyright ORBIFLY Décembre 2007 - Disclaimer

ORBIFLY MET'MAP TEAM :

Programmation & Développement : Alexandra Zaïnal
Conception & Développement : Baudouin d'Aumeries
Co-Programmation & Développement : Marc-Olivier Méhu
Soutien technique & logistique : Manuel Goepfert

Contact : metmap@orbifly.com




SOURCES & CREDITS :

   NOAA